sensor_id;sensor_type;location;lat;lon;timestamp;temperature;humidity
10270;DHT22;70826;50.930;5.334;2023-12-29T00:02:19;20.50;68.20
10270;DHT22;70826;50.930;5.334;2023-12-29T00:04:45;20.50;68.20
10270;DHT22;70826;50.930;5.334;2023-12-29T00:07:11;20.60;68.30
10270;DHT22;70826;50.930;5.334;2023-12-29T00:09:37;20.50;68.20
10270;DHT22;70826;50.930;5.334;2023-12-29T00:12:12;20.50;68.20
10270;DHT22;70826;50.930;5.334;2023-12-29T00:14:40;20.50;68.20
10270;DHT22;70826;50.930;5.334;2023-12-29T00:17:08;20.50;68.20
10270;DHT22;70826;50.930;5.334;2023-12-29T00:19:34;20.50;68.30
10270;DHT22;70826;50.930;5.334;2023-12-29T00:22:00;20.50;68.20
10270;DHT22;70826;50.930;5.334;2023-12-29T00:24:29;20.50;68.20
10270;DHT22;70826;50.930;5.334;2023-12-29T00:26:56;20.50;68.20
10270;DHT22;70826;50.930;5.334;2023-12-29T00:29:22;20.50;68.20
10270;DHT22;70826;50.930;5.334;2023-12-29T00:31:48;20.50;68.20
10270;DHT22;70826;50.930;5.334;2023-12-29T00:34:18;20.50;68.20
10270;DHT22;70826;50.930;5.334;2023-12-29T00:36:46;20.50;68.20
10270;DHT22;70826;50.930;5.334;2023-12-29T00:39:14;20.50;68.20
10270;DHT22;70826;50.930;5.334;2023-12-29T00:41:40;20.50;68.20
10270;DHT22;70826;50.930;5.334;2023-12-29T00:44:07;20.50;68.20
10270;DHT22;70826;50.930;5.334;2023-12-29T00:46:37;20.50;68.20
10270;DHT22;70826;50.930;5.334;2023-12-29T00:49:05;20.50;68.20
10270;DHT22;70826;50.930;5.334;2023-12-29T00:51:30;20.50;68.20
10270;DHT22;70826;50.930;5.334;2023-12-29T00:53:56;20.50;68.20
10270;DHT22;70826;50.930;5.334;2023-12-29T00:56:21;20.50;68.20
10270;DHT22;70826;50.930;5.334;2023-12-29T00:58:50;20.50;68.20
10270;DHT22;70826;50.930;5.334;2023-12-29T01:01:18;20.50;68.20
10270;DHT22;70826;50.930;5.334;2023-12-29T01:03:46;20.50;68.30
10270;DHT22;70826;50.930;5.334;2023-12-29T01:06:11;20.50;68.20
10270;DHT22;70826;50.930;5.334;2023-12-29T01:08:39;20.50;68.20
10270;DHT22;70826;50.930;5.334;2023-12-29T01:11:07;20.50;68.20
10270;DHT22;70826;50.930;5.334;2023-12-29T01:13:35;20.50;68.20
10270;DHT22;70826;50.930;5.334;2023-12-29T01:16:03;20.50;68.20
10270;DHT22;70826;50.930;5.334;2023-12-29T01:18:31;20.50;68.20
10270;DHT22;70826;50.930;5.334;2023-12-29T01:20:57;20.50;68.30
10270;DHT22;70826;50.930;5.334;2023-12-29T01:23:25;20.50;68.20
10270;DHT22;70826;50.930;5.334;2023-12-29T01:25:51;20.50;68.20
10270;DHT22;70826;50.930;5.334;2023-12-29T01:28:19;20.50;68.20
10270;DHT22;70826;50.930;5.334;2023-12-29T01:30:47;20.50;68.20
10270;DHT22;70826;50.930;5.334;2023-12-29T01:33:15;20.50;68.20
10270;DHT22;70826;50.930;5.334;2023-12-29T01:35:40;20.50;68.20
10270;DHT22;70826;50.930;5.334;2023-12-29T01:38:06;20.50;68.20
10270;DHT22;70826;50.930;5.334;2023-12-29T01:40:45;20.50;68.20
10270;DHT22;70826;50.930;5.334;2023-12-29T01:43:13;20.50;68.30
10270;DHT22;70826;50.930;5.334;2023-12-29T01:45:39;20.50;68.30
10270;DHT22;70826;50.930;5.334;2023-12-29T01:48:05;20.50;68.30
10270;DHT22;70826;50.930;5.334;2023-12-29T01:50:34;20.50;68.30
10270;DHT22;70826;50.930;5.334;2023-12-29T01:53:06;20.50;68.30
10270;DHT22;70826;50.930;5.334;2023-12-29T01:55:37;20.50;68.30
10270;DHT22;70826;50.930;5.334;2023-12-29T01:58:05;20.50;68.30
10270;DHT22;70826;50.930;5.334;2023-12-29T02:00:33;20.50;68.30
10270;DHT22;70826;50.930;5.334;2023-12-29T02:03:03;20.50;68.30
10270;DHT22;70826;50.930;5.334;2023-12-29T02:05:29;20.50;68.30
10270;DHT22;70826;50.930;5.334;2023-12-29T02:07:56;20.50;68.30
10270;DHT22;70826;50.930;5.334;2023-12-29T02:10:22;20.50;68.30
10270;DHT22;70826;50.930;5.334;2023-12-29T02:12:49;20.50;68.30
10270;DHT22;70826;50.930;5.334;2023-12-29T02:15:15;20.50;68.40
10270;DHT22;70826;50.930;5.334;2023-12-29T02:17:51;20.50;68.40
10270;DHT22;70826;50.930;5.334;2023-12-29T02:20:18;20.50;68.40
10270;DHT22;70826;50.930;5.334;2023-12-29T02:22:46;20.50;68.30
10270;DHT22;70826;50.930;5.334;2023-12-29T02:25:14;20.50;68.40
10270;DHT22;70826;50.930;5.334;2023-12-29T02:28:01;20.50;68.30
10270;DHT22;70826;50.930;5.334;2023-12-29T02:33:10;20.50;68.30
10270;DHT22;70826;50.930;5.334;2023-12-29T02:35:45;20.50;68.40
10270;DHT22;70826;50.930;5.334;2023-12-29T02:38:12;20.50;68.40
10270;DHT22;70826;50.930;5.334;2023-12-29T02:40:38;20.50;68.30
10270;DHT22;70826;50.930;5.334;2023-12-29T02:43:07;20.50;68.40
10270;DHT22;70826;50.930;5.334;2023-12-29T02:45:33;20.50;68.40
10270;DHT22;70826;50.930;5.334;2023-12-29T02:47:59;20.50;68.40
10270;DHT22;70826;50.930;5.334;2023-12-29T02:50:27;20.50;68.40
10270;DHT22;70826;50.930;5.334;2023-12-29T02:52:52;20.50;68.40
10270;DHT22;70826;50.930;5.334;2023-12-29T02:55:22;20.50;68.40
10270;DHT22;70826;50.930;5.334;2023-12-29T02:57:48;20.50;68.40
10270;DHT22;70826;50.930;5.334;2023-12-29T03:00:14;20.50;68.40
10270;DHT22;70826;50.930;5.334;2023-12-29T03:02:39;20.50;68.40
10270;DHT22;70826;50.930;5.334;2023-12-29T03:05:08;20.50;68.40
10270;DHT22;70826;50.930;5.334;2023-12-29T03:07:34;20.50;68.40
10270;DHT22;70826;50.930;5.334;2023-12-29T03:10:05;20.50;68.40
10270;DHT22;70826;50.930;5.334;2023-12-29T03:12:31;20.50;68.40
10270;DHT22;70826;50.930;5.334;2023-12-29T03:14:59;20.50;68.40
10270;DHT22;70826;50.930;5.334;2023-12-29T03:17:29;20.50;68.40
10270;DHT22;70826;50.930;5.334;2023-12-29T03:19:55;20.50;68.40
10270;DHT22;70826;50.930;5.334;2023-12-29T03:22:20;20.50;68.40
10270;DHT22;70826;50.930;5.334;2023-12-29T03:24:46;20.50;68.40
10270;DHT22;70826;50.930;5.334;2023-12-29T03:27:12;20.50;68.40
10270;DHT22;70826;50.930;5.334;2023-12-29T03:29:40;20.50;68.40
10270;DHT22;70826;50.930;5.334;2023-12-29T03:32:08;20.50;68.40
10270;DHT22;70826;50.930;5.334;2023-12-29T03:34:36;20.50;68.40
10270;DHT22;70826;50.930;5.334;2023-12-29T03:37:02;20.50;68.40
10270;DHT22;70826;50.930;5.334;2023-12-29T03:39:28;20.50;68.40
10270;DHT22;70826;50.930;5.334;2023-12-29T03:41:57;20.50;68.40
10270;DHT22;70826;50.930;5.334;2023-12-29T03:44:25;20.50;68.50
10270;DHT22;70826;50.930;5.334;2023-12-29T03:46:51;20.50;68.50
10270;DHT22;70826;50.930;5.334;2023-12-29T03:49:19;20.50;68.50
10270;DHT22;70826;50.930;5.334;2023-12-29T03:51:47;20.50;68.50
10270;DHT22;70826;50.930;5.334;2023-12-29T03:54:13;20.50;68.50
10270;DHT22;70826;50.930;5.334;2023-12-29T03:56:42;20.50;68.50
10270;DHT22;70826;50.930;5.334;2023-12-29T03:59:10;20.50;68.50
10270;DHT22;70826;50.930;5.334;2023-12-29T04:01:38;20.50;68.50
10270;DHT22;70826;50.930;5.334;2023-12-29T04:04:06;20.50;68.60
10270;DHT22;70826;50.930;5.334;2023-12-29T04:06:34;20.50;68.50
10270;DHT22;70826;50.930;5.334;2023-12-29T04:09:04;20.50;68.60
10270;DHT22;70826;50.930;5.334;2023-12-29T04:11:35;20.50;68.50
10270;DHT22;70826;50.930;5.334;2023-12-29T04:14:01;20.50;68.60
10270;DHT22;70826;50.930;5.334;2023-12-29T04:16:29;20.50;68.60
10270;DHT22;70826;50.930;5.334;2023-12-29T04:18:54;20.50;68.60
10270;DHT22;70826;50.930;5.334;2023-12-29T04:21:22;20.50;68.60
10270;DHT22;70826;50.930;5.334;2023-12-29T04:23:48;20.50;68.60
10270;DHT22;70826;50.930;5.334;2023-12-29T04:26:16;20.50;68.60
10270;DHT22;70826;50.930;5.334;2023-12-29T04:28:46;20.50;68.60
10270;DHT22;70826;50.930;5.334;2023-12-29T04:31:11;20.50;68.60
10270;DHT22;70826;50.930;5.334;2023-12-29T04:33:42;20.50;68.60
10270;DHT22;70826;50.930;5.334;2023-12-29T04:36:12;20.50;68.60
10270;DHT22;70826;50.930;5.334;2023-12-29T04:38:40;20.50;68.60
10270;DHT22;70826;50.930;5.334;2023-12-29T04:41:08;20.50;68.60
10270;DHT22;70826;50.930;5.334;2023-12-29T04:43:38;20.50;68.60
10270;DHT22;70826;50.930;5.334;2023-12-29T04:46:04;20.50;68.60
10270;DHT22;70826;50.930;5.334;2023-12-29T04:48:32;20.50;68.60
10270;DHT22;70826;50.930;5.334;2023-12-29T04:51:00;20.50;68.60
10270;DHT22;70826;50.930;5.334;2023-12-29T04:53:28;20.50;68.60
10270;DHT22;70826;50.930;5.334;2023-12-29T04:55:59;20.50;68.60
10270;DHT22;70826;50.930;5.334;2023-12-29T04:58:27;20.50;68.60
10270;DHT22;70826;50.930;5.334;2023-12-29T05:00:55;20.50;68.60
10270;DHT22;70826;50.930;5.334;2023-12-29T05:03:22;20.50;68.70
10270;DHT22;70826;50.930;5.334;2023-12-29T05:05:52;20.50;68.60
10270;DHT22;70826;50.930;5.334;2023-12-29T05:08:18;20.50;68.60
10270;DHT22;70826;50.930;5.334;2023-12-29T05:10:46;20.50;68.70
10270;DHT22;70826;50.930;5.334;2023-12-29T05:13:12;20.50;68.60
10270;DHT22;70826;50.930;5.334;2023-12-29T05:15:40;20.50;68.60
10270;DHT22;70826;50.930;5.334;2023-12-29T05:18:05;20.50;68.60
10270;DHT22;70826;50.930;5.334;2023-12-29T05:20:34;20.50;68.60
10270;DHT22;70826;50.930;5.334;2023-12-29T05:23:01;20.50;68.60
10270;DHT22;70826;50.930;5.334;2023-12-29T05:25:27;20.50;68.60
10270;DHT22;70826;50.930;5.334;2023-12-29T05:27:55;20.50;68.70
10270;DHT22;70826;50.930;5.334;2023-12-29T05:30:23;20.50;68.60
10270;DHT22;70826;50.930;5.334;2023-12-29T05:32:54;20.50;68.60
10270;DHT22;70826;50.930;5.334;2023-12-29T05:35:22;20.50;68.60
10270;DHT22;70826;50.930;5.334;2023-12-29T05:37:47;20.50;68.60
10270;DHT22;70826;50.930;5.334;2023-12-29T05:40:13;20.50;68.60
10270;DHT22;70826;50.930;5.334;2023-12-29T05:42:41;20.50;68.70
10270;DHT22;70826;50.930;5.334;2023-12-29T05:45:09;20.50;68.70
10270;DHT22;70826;50.930;5.334;2023-12-29T05:47:37;20.50;68.70
10270;DHT22;70826;50.930;5.334;2023-12-29T05:50:03;20.50;68.70
10270;DHT22;70826;50.930;5.334;2023-12-29T05:52:31;20.50;68.70
10270;DHT22;70826;50.930;5.334;2023-12-29T05:55:00;20.50;68.70
10270;DHT22;70826;50.930;5.334;2023-12-29T05:57:28;20.50;68.70
10270;DHT22;70826;50.930;5.334;2023-12-29T05:59:53;20.50;68.70
10270;DHT22;70826;50.930;5.334;2023-12-29T06:02:24;20.50;68.70
10270;DHT22;70826;50.930;5.334;2023-12-29T06:04:52;20.50;68.70
10270;DHT22;70826;50.930;5.334;2023-12-29T06:07:20;20.50;68.70
10270;DHT22;70826;50.930;5.334;2023-12-29T06:09:48;20.50;68.70
10270;DHT22;70826;50.930;5.334;2023-12-29T06:12:14;20.50;68.70
10270;DHT22;70826;50.930;5.334;2023-12-29T06:14:42;20.50;68.80
10270;DHT22;70826;50.930;5.334;2023-12-29T06:17:10;20.50;69.40
10270;DHT22;70826;50.930;5.334;2023-12-29T06:19:35;20.50;68.80
10270;DHT22;70826;50.930;5.334;2023-12-29T06:22:03;20.50;68.80
10270;DHT22;70826;50.930;5.334;2023-12-29T06:24:37;20.50;68.80
10270;DHT22;70826;50.930;5.334;2023-12-29T06:27:03;20.50;68.80
10270;DHT22;70826;50.930;5.334;2023-12-29T06:29:28;20.50;68.80
10270;DHT22;70826;50.930;5.334;2023-12-29T06:31:54;20.50;68.80
10270;DHT22;70826;50.930;5.334;2023-12-29T06:34:22;20.50;68.80
10270;DHT22;70826;50.930;5.334;2023-12-29T06:36:50;20.50;68.80
10270;DHT22;70826;50.930;5.334;2023-12-29T06:39:18;20.50;68.90
10270;DHT22;70826;50.930;5.334;2023-12-29T06:41:44;20.50;68.90
10270;DHT22;70826;50.930;5.334;2023-12-29T06:44:09;20.50;68.90
10270;DHT22;70826;50.930;5.334;2023-12-29T06:46:38;20.50;68.90
10270;DHT22;70826;50.930;5.334;2023-12-29T06:49:07;20.50;68.90
10270;DHT22;70826;50.930;5.334;2023-12-29T06:51:35;20.50;68.90
10270;DHT22;70826;50.930;5.334;2023-12-29T06:54:03;20.50;68.90
10270;DHT22;70826;50.930;5.334;2023-12-29T06:56:36;20.50;68.90
10270;DHT22;70826;50.930;5.334;2023-12-29T06:59:01;20.50;69.00
10270;DHT22;70826;50.930;5.334;2023-12-29T07:01:27;20.50;69.00
10270;DHT22;70826;50.930;5.334;2023-12-29T07:03:52;20.50;69.00
10270;DHT22;70826;50.930;5.334;2023-12-29T07:06:18;20.50;69.00
10270;DHT22;70826;50.930;5.334;2023-12-29T07:08:46;20.50;69.00
10270;DHT22;70826;50.930;5.334;2023-12-29T07:11:12;20.50;69.10
10270;DHT22;70826;50.930;5.334;2023-12-29T07:13:38;20.50;69.20
10270;DHT22;70826;50.930;5.334;2023-12-29T07:16:06;20.50;69.20
10270;DHT22;70826;50.930;5.334;2023-12-29T07:18:34;20.50;69.20
10270;DHT22;70826;50.930;5.334;2023-12-29T07:21:04;20.50;69.20
10270;DHT22;70826;50.930;5.334;2023-12-29T07:23:30;20.50;69.20
10270;DHT22;70826;50.930;5.334;2023-12-29T07:26:00;20.50;69.20
10270;DHT22;70826;50.930;5.334;2023-12-29T07:28:26;20.50;69.30
10270;DHT22;70826;50.930;5.334;2023-12-29T07:30:56;20.50;69.30
10270;DHT22;70826;50.930;5.334;2023-12-29T07:33:22;20.50;69.40
10270;DHT22;70826;50.930;5.334;2023-12-29T07:35:49;20.50;69.40
10270;DHT22;70826;50.930;5.334;2023-12-29T07:38:15;20.50;69.40
10270;DHT22;70826;50.930;5.334;2023-12-29T07:40:46;20.50;69.50
10270;DHT22;70826;50.930;5.334;2023-12-29T07:43:14;20.50;69.50
10270;DHT22;70826;50.930;5.334;2023-12-29T07:45:43;20.50;69.50
10270;DHT22;70826;50.930;5.334;2023-12-29T07:48:13;20.50;69.60
10270;DHT22;70826;50.930;5.334;2023-12-29T07:50:42;20.50;69.60
10270;DHT22;70826;50.930;5.334;2023-12-29T07:53:07;20.50;69.60
10270;DHT22;70826;50.930;5.334;2023-12-29T07:55:38;20.50;69.60
10270;DHT22;70826;50.930;5.334;2023-12-29T07:58:07;20.50;69.70
10270;DHT22;70826;50.930;5.334;2023-12-29T08:00:37;20.50;69.70
10270;DHT22;70826;50.930;5.334;2023-12-29T08:03:03;20.50;69.70
10270;DHT22;70826;50.930;5.334;2023-12-29T08:05:35;20.50;69.80
10270;DHT22;70826;50.930;5.334;2023-12-29T08:08:00;20.50;69.80
10270;DHT22;70826;50.930;5.334;2023-12-29T08:10:26;20.50;69.80
10270;DHT22;70826;50.930;5.334;2023-12-29T08:12:54;20.50;69.80
10270;DHT22;70826;50.930;5.334;2023-12-29T08:15:20;20.50;69.90
10270;DHT22;70826;50.930;5.334;2023-12-29T08:17:51;20.50;69.90
10270;DHT22;70826;50.930;5.334;2023-12-29T08:20:19;20.50;69.90
10270;DHT22;70826;50.930;5.334;2023-12-29T08:22:48;20.50;69.90
10270;DHT22;70826;50.930;5.334;2023-12-29T08:25:16;20.50;69.90
10270;DHT22;70826;50.930;5.334;2023-12-29T08:27:43;20.50;69.90
10270;DHT22;70826;50.930;5.334;2023-12-29T08:30:12;20.50;70.00
10270;DHT22;70826;50.930;5.334;2023-12-29T08:32:37;20.50;70.00
10270;DHT22;70826;50.930;5.334;2023-12-29T08:35:05;20.50;70.00
10270;DHT22;70826;50.930;5.334;2023-12-29T08:37:32;20.50;70.00
10270;DHT22;70826;50.930;5.334;2023-12-29T08:39:59;20.50;70.00
10270;DHT22;70826;50.930;5.334;2023-12-29T08:42:25;20.50;70.10
10270;DHT22;70826;50.930;5.334;2023-12-29T08:44:51;20.50;70.10
10270;DHT22;70826;50.930;5.334;2023-12-29T08:47:21;20.50;70.10
10270;DHT22;70826;50.930;5.334;2023-12-29T08:49:49;20.50;70.10
10270;DHT22;70826;50.930;5.334;2023-12-29T08:52:22;20.50;70.10
10270;DHT22;70826;50.930;5.334;2023-12-29T08:54:52;20.50;70.10
10270;DHT22;70826;50.930;5.334;2023-12-29T08:57:22;20.50;70.10
10270;DHT22;70826;50.930;5.334;2023-12-29T08:59:50;20.50;70.20
10270;DHT22;70826;50.930;5.334;2023-12-29T09:02:18;20.50;70.20
10270;DHT22;70826;50.930;5.334;2023-12-29T09:04:44;20.50;70.20
10270;DHT22;70826;50.930;5.334;2023-12-29T09:07:12;20.50;70.20
10270;DHT22;70826;50.930;5.334;2023-12-29T09:09:43;20.50;70.20
10270;DHT22;70826;50.930;5.334;2023-12-29T09:12:11;20.50;70.30
10270;DHT22;70826;50.930;5.334;2023-12-29T09:14:36;20.50;70.20
10270;DHT22;70826;50.930;5.334;2023-12-29T09:17:02;20.50;70.30
10270;DHT22;70826;50.930;5.334;2023-12-29T09:19:28;20.50;70.30
10270;DHT22;70826;50.930;5.334;2023-12-29T09:21:53;20.50;70.30
10270;DHT22;70826;50.930;5.334;2023-12-29T09:24:19;20.50;70.30
10270;DHT22;70826;50.930;5.334;2023-12-29T09:26:44;20.50;70.40
10270;DHT22;70826;50.930;5.334;2023-12-29T09:29:10;20.50;70.30
10270;DHT22;70826;50.930;5.334;2023-12-29T09:31:38;20.50;70.30
10270;DHT22;70826;50.930;5.334;2023-12-29T09:34:04;20.50;70.30
10270;DHT22;70826;50.930;5.334;2023-12-29T09:36:29;20.50;70.30
10270;DHT22;70826;50.930;5.334;2023-12-29T09:39:00;20.50;70.30
10270;DHT22;70826;50.930;5.334;2023-12-29T09:41:26;20.50;70.30
10270;DHT22;70826;50.930;5.334;2023-12-29T09:43:57;20.50;70.30
10270;DHT22;70826;50.930;5.334;2023-12-29T09:46:25;20.50;70.30
10270;DHT22;70826;50.930;5.334;2023-12-29T09:48:56;20.60;70.40
10270;DHT22;70826;50.930;5.334;2023-12-29T09:51:23;20.50;70.40
10270;DHT22;70826;50.930;5.334;2023-12-29T09:53:54;20.50;70.40
10270;DHT22;70826;50.930;5.334;2023-12-29T09:56:26;20.50;70.40
10270;DHT22;70826;50.930;5.334;2023-12-29T09:58:57;20.50;70.40
10270;DHT22;70826;50.930;5.334;2023-12-29T10:01:23;20.50;70.50
10270;DHT22;70826;50.930;5.334;2023-12-29T10:03:49;20.50;70.40
10270;DHT22;70826;50.930;5.334;2023-12-29T10:06:27;20.50;70.50
10270;DHT22;70826;50.930;5.334;2023-12-29T10:08:56;20.50;70.60
10270;DHT22;70826;50.930;5.334;2023-12-29T10:11:23;20.60;70.50
10270;DHT22;70826;50.930;5.334;2023-12-29T10:13:54;20.50;70.50
10270;DHT22;70826;50.930;5.334;2023-12-29T10:21:31;20.50;70.50
10270;DHT22;70826;50.930;5.334;2023-12-29T10:24:19;20.50;70.60
10270;DHT22;70826;50.930;5.334;2023-12-29T10:26:46;20.50;70.70
10270;DHT22;70826;50.930;5.334;2023-12-29T10:29:15;20.50;70.60
10270;DHT22;70826;50.930;5.334;2023-12-29T10:31:44;20.50;70.60
10270;DHT22;70826;50.930;5.334;2023-12-29T10:34:22;20.50;70.60
10270;DHT22;70826;50.930;5.334;2023-12-29T10:36:58;20.50;70.70
10270;DHT22;70826;50.930;5.334;2023-12-29T10:39:29;20.50;70.70
10270;DHT22;70826;50.930;5.334;2023-12-29T10:42:05;20.50;70.60
10270;DHT22;70826;50.930;5.334;2023-12-29T10:44:35;20.50;70.70
10270;DHT22;70826;50.930;5.334;2023-12-29T10:47:11;20.50;70.70
10270;DHT22;70826;50.930;5.334;2023-12-29T10:49:37;20.50;70.80
10270;DHT22;70826;50.930;5.334;2023-12-29T10:52:13;20.50;70.70
10270;DHT22;70826;50.930;5.334;2023-12-29T10:54:45;20.50;70.80
10270;DHT22;70826;50.930;5.334;2023-12-29T10:57:11;20.50;70.80
10270;DHT22;70826;50.930;5.334;2023-12-29T10:59:37;20.50;70.80
10270;DHT22;70826;50.930;5.334;2023-12-29T11:02:03;20.50;70.80
10270;DHT22;70826;50.930;5.334;2023-12-29T11:04:33;20.50;70.80
10270;DHT22;70826;50.930;5.334;2023-12-29T11:07:01;20.50;70.80
10270;DHT22;70826;50.930;5.334;2023-12-29T11:09:32;20.50;70.80
10270;DHT22;70826;50.930;5.334;2023-12-29T11:12:03;20.50;70.90
10270;DHT22;70826;50.930;5.334;2023-12-29T11:14:33;20.50;70.90
10270;DHT22;70826;50.930;5.334;2023-12-29T11:17:01;20.50;70.90
10270;DHT22;70826;50.930;5.334;2023-12-29T11:19:29;20.50;70.90
10270;DHT22;70826;50.930;5.334;2023-12-29T11:21:55;20.50;70.90
10270;DHT22;70826;50.930;5.334;2023-12-29T11:24:24;20.50;70.90
10270;DHT22;70826;50.930;5.334;2023-12-29T11:26:50;20.50;70.90
10270;DHT22;70826;50.930;5.334;2023-12-29T11:29:18;20.60;71.00
10270;DHT22;70826;50.930;5.334;2023-12-29T11:31:47;20.50;71.00
10270;DHT22;70826;50.930;5.334;2023-12-29T11:34:37;20.50;71.00
10270;DHT22;70826;50.930;5.334;2023-12-29T11:37:32;20.50;71.00
10270;DHT22;70826;50.930;5.334;2023-12-29T11:42:45;20.50;71.00
10270;DHT22;70826;50.930;5.334;2023-12-29T11:45:29;20.50;71.00
10270;DHT22;70826;50.930;5.334;2023-12-29T11:47:58;20.50;71.10
10270;DHT22;70826;50.930;5.334;2023-12-29T11:52:59;20.50;71.10
10270;DHT22;70826;50.930;5.334;2023-12-29T11:58:23;20.50;71.10
10270;DHT22;70826;50.930;5.334;2023-12-29T12:00:49;20.50;71.20
10270;DHT22;70826;50.930;5.334;2023-12-29T12:03:17;20.50;71.70
10270;DHT22;70826;50.930;5.334;2023-12-29T12:05:47;20.50;71.10
10270;DHT22;70826;50.930;5.334;2023-12-29T12:08:28;20.50;71.10
10270;DHT22;70826;50.930;5.334;2023-12-29T12:10:55;20.50;71.20
10270;DHT22;70826;50.930;5.334;2023-12-29T12:13:42;20.50;71.10
10270;DHT22;70826;50.930;5.334;2023-12-29T12:16:08;20.50;71.20
10270;DHT22;70826;50.930;5.334;2023-12-29T12:18:34;20.50;71.10
10270;DHT22;70826;50.930;5.334;2023-12-29T12:21:00;20.50;71.10
10270;DHT22;70826;50.930;5.334;2023-12-29T12:23:32;20.50;71.20
10270;DHT22;70826;50.930;5.334;2023-12-29T12:26:01;20.50;71.20
10270;DHT22;70826;50.930;5.334;2023-12-29T12:28:26;20.50;71.20
10270;DHT22;70826;50.930;5.334;2023-12-29T12:31:04;20.50;71.20
10270;DHT22;70826;50.930;5.334;2023-12-29T12:33:30;20.50;71.20
10270;DHT22;70826;50.930;5.334;2023-12-29T12:36:00;20.50;71.10
10270;DHT22;70826;50.930;5.334;2023-12-29T12:38:26;20.50;71.20
10270;DHT22;70826;50.930;5.334;2023-12-29T12:40:54;20.50;71.20
10270;DHT22;70826;50.930;5.334;2023-12-29T12:43:24;20.50;71.20
10270;DHT22;70826;50.930;5.334;2023-12-29T12:45:55;20.60;71.30
10270;DHT22;70826;50.930;5.334;2023-12-29T12:48:41;20.50;71.80
10270;DHT22;70826;50.930;5.334;2023-12-29T12:51:10;20.60;71.30
10270;DHT22;70826;50.930;5.334;2023-12-29T12:53:42;20.50;71.20
10270;DHT22;70826;50.930;5.334;2023-12-29T12:56:13;20.50;71.30
10270;DHT22;70826;50.930;5.334;2023-12-29T12:58:39;20.50;71.20
10270;DHT22;70826;50.930;5.334;2023-12-29T13:01:05;20.60;71.30
10270;DHT22;70826;50.930;5.334;2023-12-29T13:03:31;20.60;71.30
10270;DHT22;70826;50.930;5.334;2023-12-29T13:06:00;20.50;71.30
10270;DHT22;70826;50.930;5.334;2023-12-29T13:08:30;20.50;71.30
10270;DHT22;70826;50.930;5.334;2023-12-29T13:10:56;20.50;71.30
10270;DHT22;70826;50.930;5.334;2023-12-29T13:13:22;20.50;71.40
10270;DHT22;70826;50.930;5.334;2023-12-29T13:15:51;20.50;71.60
10270;DHT22;70826;50.930;5.334;2023-12-29T13:18:29;20.50;72.00
10270;DHT22;70826;50.930;5.334;2023-12-29T13:20:57;20.50;72.30
10270;DHT22;70826;50.930;5.334;2023-12-29T13:23:28;20.50;72.40
10270;DHT22;70826;50.930;5.334;2023-12-29T13:25:59;20.50;72.80
10270;DHT22;70826;50.930;5.334;2023-12-29T13:28:27;20.50;73.00
10270;DHT22;70826;50.930;5.334;2023-12-29T13:30:54;20.50;73.20
10270;DHT22;70826;50.930;5.334;2023-12-29T13:33:33;20.40;73.40
10270;DHT22;70826;50.930;5.334;2023-12-29T13:36:23;20.40;73.90
10270;DHT22;70826;50.930;5.334;2023-12-29T13:38:58;20.40;74.10
10270;DHT22;70826;50.930;5.334;2023-12-29T13:41:29;20.40;74.10
10270;DHT22;70826;50.930;5.334;2023-12-29T13:44:01;20.40;74.00
10270;DHT22;70826;50.930;5.334;2023-12-29T13:46:30;20.50;74.10
10270;DHT22;70826;50.930;5.334;2023-12-29T13:48:59;20.50;74.60
10270;DHT22;70826;50.930;5.334;2023-12-29T13:51:27;20.60;73.90
10270;DHT22;70826;50.930;5.334;2023-12-29T13:54:03;20.60;73.90
10270;DHT22;70826;50.930;5.334;2023-12-29T13:56:28;20.60;74.10
10270;DHT22;70826;50.930;5.334;2023-12-29T13:58:54;20.60;74.00
10270;DHT22;70826;50.930;5.334;2023-12-29T14:01:25;20.60;74.10
10270;DHT22;70826;50.930;5.334;2023-12-29T14:04:00;20.60;74.20
10270;DHT22;70826;50.930;5.334;2023-12-29T14:06:51;20.60;74.40
10270;DHT22;70826;50.930;5.334;2023-12-29T14:09:19;20.50;74.50
10270;DHT22;70826;50.930;5.334;2023-12-29T14:11:50;20.60;74.50
10270;DHT22;70826;50.930;5.334;2023-12-29T14:14:28;20.60;74.40
10270;DHT22;70826;50.930;5.334;2023-12-29T14:16:57;20.70;74.10
10270;DHT22;70826;50.930;5.334;2023-12-29T14:19:23;20.80;73.90
10270;DHT22;70826;50.930;5.334;2023-12-29T14:21:53;20.90;73.80
10270;DHT22;70826;50.930;5.334;2023-12-29T14:24:19;20.90;73.60
10270;DHT22;70826;50.930;5.334;2023-12-29T14:29:18;20.90;73.40
10270;DHT22;70826;50.930;5.334;2023-12-29T14:31:48;21.00;73.30
10270;DHT22;70826;50.930;5.334;2023-12-29T14:34:14;20.90;73.20
10270;DHT22;70826;50.930;5.334;2023-12-29T14:36:43;20.90;73.10
10270;DHT22;70826;50.930;5.334;2023-12-29T14:39:09;21.00;73.00
10270;DHT22;70826;50.930;5.334;2023-12-29T14:41:41;21.00;73.00
10270;DHT22;70826;50.930;5.334;2023-12-29T14:44:07;21.00;72.90
10270;DHT22;70826;50.930;5.334;2023-12-29T14:46:35;21.00;72.90
10270;DHT22;70826;50.930;5.334;2023-12-29T14:49:04;21.00;72.80
10270;DHT22;70826;50.930;5.334;2023-12-29T14:51:30;21.00;72.70
10270;DHT22;70826;50.930;5.334;2023-12-29T14:53:58;21.00;72.70
10270;DHT22;70826;50.930;5.334;2023-12-29T14:56:31;21.00;72.60
10270;DHT22;70826;50.930;5.334;2023-12-29T14:58:56;21.00;72.60
10270;DHT22;70826;50.930;5.334;2023-12-29T15:01:22;21.00;72.60
10270;DHT22;70826;50.930;5.334;2023-12-29T15:03:48;21.00;72.50
10270;DHT22;70826;50.930;5.334;2023-12-29T15:06:16;21.00;72.40
10270;DHT22;70826;50.930;5.334;2023-12-29T15:08:42;21.00;72.40
10270;DHT22;70826;50.930;5.334;2023-12-29T15:11:12;20.90;72.40
10270;DHT22;70826;50.930;5.334;2023-12-29T15:13:38;21.00;72.40
10270;DHT22;70826;50.930;5.334;2023-12-29T15:16:06;21.00;72.40
10270;DHT22;70826;50.930;5.334;2023-12-29T15:18:34;20.90;72.30
10270;DHT22;70826;50.930;5.334;2023-12-29T15:21:06;21.00;72.30
10270;DHT22;70826;50.930;5.334;2023-12-29T15:23:32;20.90;72.30
10270;DHT22;70826;50.930;5.334;2023-12-29T15:26:00;21.00;72.30
10270;DHT22;70826;50.930;5.334;2023-12-29T15:28:26;20.90;72.30
10270;DHT22;70826;50.930;5.334;2023-12-29T15:30:55;20.90;72.20
10270;DHT22;70826;50.930;5.334;2023-12-29T15:33:25;21.00;72.30
10270;DHT22;70826;50.930;5.334;2023-12-29T15:35:51;20.90;72.20
10270;DHT22;70826;50.930;5.334;2023-12-29T15:38:17;20.90;72.20
10270;DHT22;70826;50.930;5.334;2023-12-29T15:40:42;20.90;72.40
10270;DHT22;70826;50.930;5.334;2023-12-29T15:43:08;20.80;72.80
10270;DHT22;70826;50.930;5.334;2023-12-29T15:45:34;20.70;73.10
10270;DHT22;70826;50.930;5.334;2023-12-29T15:48:03;20.70;73.40
10270;DHT22;70826;50.930;5.334;2023-12-29T15:50:28;20.70;73.70
10270;DHT22;70826;50.930;5.334;2023-12-29T15:52:54;20.70;73.90
10270;DHT22;70826;50.930;5.334;2023-12-29T15:55:20;20.70;74.10
10270;DHT22;70826;50.930;5.334;2023-12-29T15:57:48;20.70;74.20